Time;durP1;ratioP1;P1;durP2;ratioP2;P2;SDS_P1;SDS_P2;PMS_P1;PMS_P2;Temp;Humidity;BMP_temperature;BMP_pressure;BME280_temperature;BME280_humidity;BME280_pressure;Samples;Min_cycle;Max_cycle;Signal;HPM_P1;HPM_P2
2021/09/14 00:00:27;;;;;;;10.88;7.05;;;;;;;11.77;80.78;93220.00;5090491;28;20056;-88
2021/09/14 00:02:55;;;;;;;9.48;7.00;;;;;;;11.78;80.96;93233.66;5075225;28;20489;-88
2021/09/14 00:05:25;;;;;;;8.93;7.18;;;;;;;12.13;80.53;93286.34;5069901;28;20511;-88
2021/09/14 00:07:52;;;;;;;9.63;7.32;;;;;;;12.19;81.31;93289.84;5057361;28;20059;-88
2021/09/14 00:10:19;;;;;;;8.45;6.88;;;;;;;11.50;81.07;93196.38;5049540;28;20057;-87
2021/09/14 00:12:46;;;;;;;10.68;7.88;;;;;;;11.98;80.85;93266.06;5050199;28;20092;-86
2021/09/14 00:15:13;;;;;;;8.55;6.85;;;;;;;12.08;81.17;93288.78;5050141;28;20052;-86
2021/09/14 00:17:41;;;;;;;10.45;7.20;;;;;;;12.00;81.24;93290.59;5049813;28;20072;-86
2021/09/14 00:20:09;;;;;;;9.30;7.13;;;;;;;11.81;81.68;93276.97;5050012;28;20063;-87
2021/09/14 00:22:37;;;;;;;9.80;7.50;;;;;;;11.31;82.65;93224.66;5049983;28;20156;-88
2021/09/14 00:25:05;;;;;;;10.30;7.70;;;;;;;11.36;83.05;93250.50;5050058;28;20044;-88
2021/09/14 00:27:32;;;;;;;9.75;7.53;;;;;;;11.55;82.64;93270.31;5049516;28;20049;-88
2021/09/14 00:30:01;;;;;;;9.50;7.15;;;;;;;11.41;82.03;93231.09;5049782;28;20383;-88
2021/09/14 00:32:29;;;;;;;9.43;6.93;;;;;;;11.37;82.33;93230.72;5049506;28;20056;-88
2021/09/14 00:34:58;;;;;;;12.35;7.40;;;;;;;11.83;82.96;93303.28;5049066;28;20052;-88
2021/09/14 00:37:25;;;;;;;9.27;7.20;;;;;;;11.33;82.75;93232.16;5049253;28;20413;-87
2021/09/14 00:39:52;;;;;;;10.77;6.90;;;;;;;11.79;83.09;93291.84;5049738;28;20135;-85
2021/09/14 00:42:18;;;;;;;10.02;7.63;;;;;;;11.86;82.77;93300.25;5049163;28;20893;-85
2021/09/14 00:44:46;;;;;;;9.02;7.15;;;;;;;11.58;82.69;93269.91;5048538;28;20049;-85
2021/09/14 00:47:13;;;;;;;9.77;8.00;;;;;;;11.80;82.93;93292.63;5049490;28;20061;-85
2021/09/14 00:49:39;;;;;;;9.95;7.38;;;;;;;11.28;81.76;93216.56;5049331;28;20063;-85
2021/09/14 00:52:09;;;;;;;9.65;6.80;;;;;;;11.78;81.92;93295.41;5049266;28;20052;-85
2021/09/14 00:54:37;;;;;;;12.88;7.88;;;;;;;11.64;82.52;93281.91;5049131;28;20508;-85
2021/09/14 00:57:05;;;;;;;10.60;7.70;;;;;;;11.69;82.85;93297.50;5067470;28;20117;-85
2021/09/14 00:59:32;;;;;;;8.27;7.43;;;;;;;11.76;82.68;93313.63;5089338;28;20054;-85
2021/09/14 01:01:59;;;;;;;10.10;7.78;;;;;;;11.79;81.55;93309.09;5089901;28;20097;-85
2021/09/14 01:04:26;;;;;;;9.55;7.50;;;;;;;11.78;81.42;93308.28;5089334;28;20052;-85
2021/09/14 01:06:53;;;;;;;10.80;7.70;;;;;;;11.61;81.45;93282.31;5084778;28;20403;-85
2021/09/14 01:09:23;;;;;;;9.30;7.00;;;;;;;11.54;82.01;93292.69;5069300;28;20076;-85
2021/09/14 01:11:50;;;;;;;9.93;7.03;;;;;;;11.34;81.97;93262.03;5069331;28;20135;-85
2021/09/14 01:14:17;;;;;;;8.25;6.78;;;;;;;11.72;81.83;93311.72;5069281;28;20060;-84
2021/09/14 01:16:44;;;;;;;12.50;7.63;;;;;;;11.50;81.98;93283.81;5069296;28;20052;-84
2021/09/14 01:19:11;;;;;;;11.98;7.55;;;;;;;11.49;82.94;93295.13;5068962;28;20513;-84
2021/09/14 01:21:39;;;;;;;11.10;7.10;;;;;;;11.36;82.73;93281.38;5068930;28;20056;-84
2021/09/14 01:24:08;;;;;;;9.23;6.68;;;;;;;11.55;82.79;93306.34;5068933;28;20049;-84
2021/09/14 01:26:36;;;;;;;8.23;7.32;;;;;;;11.31;83.72;93280.44;5068878;28;20504;-84
2021/09/14 01:29:10;;;;;;;10.20;7.35;;;;;;;11.44;83.41;93298.31;5069314;28;20056;-85
2021/09/14 01:31:37;;;;;;;9.57;8.02;;;;;;;11.47;82.85;93297.91;5069163;28;20789;-85
2021/09/14 01:34:05;;;;;;;8.23;7.25;;;;;;;11.52;82.46;93301.63;5069098;28;20052;-84
2021/09/14 01:36:33;;;;;;;8.43;6.90;;;;;;;11.48;82.49;93304.63;5068893;28;20045;-83
2021/09/14 01:39:00;;;;;;;9.55;7.07;;;;;;;11.46;82.59;93303.25;5069055;28;20045;-83
2021/09/14 01:41:28;;;;;;;8.35;6.80;;;;;;;11.49;82.16;93298.47;5068864;28;20048;-83
2021/09/14 01:43:55;;;;;;;9.35;7.18;;;;;;;11.46;82.58;93298.91;5069165;28;20063;-84
2021/09/14 01:46:21;;;;;;;9.00;7.22;;;;;;;11.28;82.37;93270.56;5069430;28;20044;-83
2021/09/14 01:48:48;;;;;;;8.85;6.80;;;;;;;11.44;81.89;93300.13;5073263;28;20056;-84
2021/09/14 01:51:15;;;;;;;10.02;6.80;;;;;;;11.41;81.99;93298.75;5072763;28;20535;-84
2021/09/14 01:53:42;;;;;;;8.15;6.82;;;;;;;11.07;82.35;93257.91;5072779;28;20049;-84
2021/09/14 01:56:09;;;;;;;7.40;6.70;;;;;;;11.32;82.57;93300.00;5074519;28;20122;-84
2021/09/14 01:58:37;;;;;;;10.93;6.85;;;;;;;11.10;82.91;93279.81;5093167;28;20051;-84
2021/09/14 02:01:09;;;;;;;8.27;7.13;;;;;;;10.92;83.61;93273.66;5094536;28;20416;-84
2021/09/14 02:03:45;;;;;;;8.65;6.90;;;;;;;10.79;84.90;93259.09;5094187;28;20484;-84
2021/09/14 02:33:56;;;;;;;13.23;9.45;;;;;;;10.37;90.00;93295.50;5051735;28;20056;-84
2021/09/14 02:39:19;;;;;;;10.98;8.95;;;;;;;10.31;90.35;93293.75;5051788;28;20060;-84
2021/09/14 02:45:00;;;;;;;9.38;8.18;;;;;;;10.59;89.17;93320.91;5038468;28;20574;-83
2021/09/14 02:58:44;;;;;;;12.02;9.07;;;;;;;10.41;87.69;93283.03;5030352;28;20052;-84
2021/09/14 03:01:13;;;;;;;10.32;8.70;;;;;;;10.46;88.09;93314.06;5051386;28;20053;-85
2021/09/14 03:03:43;;;;;;;11.32;9.45;;;;;;;10.59;87.86;93331.19;5051181;28;20048;-84
2021/09/14 03:06:10;;;;;;;11.02;8.65;;;;;;;10.38;88.91;93307.34;5051252;28;20536;-84
2021/09/14 03:08:38;;;;;;;11.35;8.82;;;;;;;10.32;88.31;93304.84;5070391;28;20098;-84
2021/09/14 03:11:06;;;;;;;10.32;8.40;;;;;;;10.48;88.63;93329.25;5070978;28;20052;-84
2021/09/14 03:13:33;;;;;;;11.93;8.63;;;;;;;10.27;88.41;93290.81;5071043;28;20130;-84
2021/09/14 03:16:00;;;;;;;9.55;8.10;;;;;;;10.41;87.97;93313.84;5071045;28;20056;-84
2021/09/14 03:18:28;;;;;;;11.35;8.48;;;;;;;10.50;88.39;93322.94;5071172;28;20048;-84
2021/09/14 03:20:56;;;;;;;11.13;8.73;;;;;;;10.37;88.41;93299.88;5071124;28;20040;-84
2021/09/14 03:23:26;;;;;;;12.63;9.10;;;;;;;10.47;88.51;93309.72;5071137;28;20048;-89
2021/09/14 03:25:53;;;;;;;12.98;8.52;;;;;;;10.51;88.62;93326.28;5071220;28;20121;-84
2021/09/14 03:28:20;;;;;;;11.75;8.93;;;;;;;10.48;88.43;93319.00;5071110;28;20049;-84
2021/09/14 03:30:48;;;;;;;10.98;7.88;;;;;;;9.88;87.79;93231.00;5071019;28;20040;-83
2021/09/14 03:33:15;;;;;;;10.13;7.32;;;;;;;10.45;87.73;93312.47;5070684;28;20052;-84
2021/09/14 03:35:42;;;;;;;8.95;7.53;;;;;;;10.46;87.94;93326.13;5070670;28;20063;-84
2021/09/14 03:38:11;;;;;;;9.30;7.78;;;;;;;10.43;87.50;93328.09;5070322;28;20445;-84
2021/09/14 03:40:39;;;;;;;10.60;7.60;;;;;;;10.40;87.52;93336.19;5070208;28;20048;-84
2021/09/14 03:43:06;;;;;;;9.50;7.30;;;;;;;10.31;87.87;93318.66;5070236;28;20555;-84
2021/09/14 03:45:33;;;;;;;9.38;7.85;;;;;;;10.34;89.31;93339.59;5070659;28;20059;-85
2021/09/14 03:48:00;;;;;;;10.48;7.65;;;;;;;10.05;89.24;93307.50;5070298;28;20059;-85
2021/09/14 03:50:27;;;;;;;10.38;7.72;;;;;;;10.20;89.35;93330.34;5070626;28;20498;-85
2021/09/14 03:52:54;;;;;;;12.65;7.82;;;;;;;10.09;90.03;93322.28;5071014;28;20048;-85
2021/09/14 03:55:22;;;;;;;14.70;8.50;;;;;;;10.18;89.94;93340.81;5070882;28;20135;-85
2021/09/14 03:57:49;;;;;;;13.00;7.57;;;;;;;10.00;89.24;93310.69;5086360;28;20054;-84
2021/09/14 04:00:17;;;;;;;11.15;7.55;;;;;;;10.07;90.04;93328.63;5090699;28;20048;-84
2021/09/14 04:02:46;;;;;;;15.30;7.85;;;;;;;9.88;89.49;93310.53;5068445;28;20493;-85
2021/09/14 04:08:49;;;;;;;11.23;8.10;;;;;;;9.69;89.69;93271.91;5059971;28;20045;-85
2021/09/14 04:10:43;;;;;;;12.20;7.75;;;;;;;9.94;90.70;93332.81;5057064;28;20638;-86
2021/09/14 04:13:11;;;;;;;13.93;8.88;;;;;;;10.00;91.54;93346.63;5057257;28;20048;-86
2021/09/14 04:15:38;;;;;;;13.85;8.85;;;;;;;9.83;91.39;93331.66;5060005;28;20076;-86
2021/09/14 04:18:05;;;;;;;17.42;9.65;;;;;;;9.80;91.67;93328.69;5060900;28;20041;-85
2021/09/14 04:20:32;;;;;;;19.85;9.20;;;;;;;10.01;90.59;93337.94;5059081;28;20068;-86
2021/09/14 04:22:59;;;;;;;18.38;9.57;;;;;;;10.11;90.10;93347.75;5059260;28;20441;-85
2021/09/14 04:25:26;;;;;;;13.23;8.60;;;;;;;10.11;89.50;93345.19;5060259;28;20047;-85
2021/09/14 04:27:55;;;;;;;14.68;9.10;;;;;;;9.89;89.28;93310.34;5058671;28;20053;-85
2021/09/14 04:30:22;;;;;;;23.63;10.38;;;;;;;10.16;88.74;93346.16;5058586;28;20675;-85
2021/09/14 04:32:49;;;;;;;23.70;11.52;;;;;;;10.19;88.71;93351.88;5060405;28;20131;-85
2021/09/14 04:35:16;;;;;;;22.40;10.88;;;;;;;10.27;88.64;93367.84;5058780;28;20056;-86
2021/09/14 04:37:43;;;;;;;24.77;13.45;;;;;;;10.20;88.55;93353.44;5058285;28;20502;-86
2021/09/14 04:40:13;;;;;;;15.48;11.43;;;;;;;10.22;88.73;93357.41;5060168;28;20059;-86
2021/09/14 04:42:40;;;;;;;19.70;11.82;;;;;;;10.20;88.63;93356.03;5059029;28;20081;-86
2021/09/14 04:45:10;;;;;;;19.45;11.80;;;;;;;10.05;88.59;93325.47;5058120;28;20057;-84
2021/09/14 04:47:37;;;;;;;17.35;11.65;;;;;;;10.19;88.17;93339.84;5059460;28;20111;-85
2021/09/14 04:50:05;;;;;;;15.65;10.32;;;;;;;10.39;88.45;93369.78;5059937;28;20124;-85
2021/09/14 04:52:32;;;;;;;15.70;9.77;;;;;;;10.23;87.99;93330.72;5058156;28;20076;-86
2021/09/14 04:54:59;;;;;;;13.68;8.50;;;;;;;10.40;87.93;93346.47;5058988;28;20048;-85
2021/09/14 04:57:26;;;;;;;15.20;7.80;;;;;;;10.27;87.34;93334.47;5051746;28;20080;-87
2021/09/14 04:59:53;;;;;;;13.07;7.70;;;;;;;10.19;88.59;93314.19;5049421;28;20053;-86
2021/09/14 05:02:21;;;;;;;15.25;8.43;;;;;;;10.62;88.01;93371.06;5049562;28;20049;-86
2021/09/14 05:04:49;;;;;;;16.60;8.75;;;;;;;10.72;87.80;93371.44;5049327;28;20059;-86
2021/09/14 05:07:15;;;;;;;13.90;8.50;;;;;;;10.50;88.39;93338.34;5049608;28;20465;-85
2021/09/14 05:09:42;;;;;;;15.50;7.05;;;;;;;10.23;87.38;93294.78;5049159;28;20060;-85
2021/09/14 05:12:09;;;;;;;14.80;7.30;;;;;;;10.88;87.12;93375.28;5049678;28;20053;-84
2021/09/14 05:14:36;;;;;;;11.77;8.00;;;;;;;10.69;87.42;93338.44;5049404;28;20069;-85
2021/09/14 05:17:03;;;;;;;18.45;10.20;;;;;;;10.61;87.67;93331.78;5049293;28;20137;-85
2021/09/14 05:19:33;;;;;;;17.13;9.98;;;;;;;10.95;87.35;93373.47;5049375;28;20068;-85
2021/09/14 05:22:01;;;;;;;15.85;9.98;;;;;;;10.80;88.08;93342.13;5056238;28;20044;-85
2021/09/14 05:24:29;;;;;;;12.98;9.80;;;;;;;11.00;88.55;93377.19;5057434;28;20060;-84
2021/09/14 05:26:57;;;;;;;14.80;9.25;;;;;;;11.14;89.45;93383.03;5053088;28;20052;-84
2021/09/14 05:29:25;;;;;;;11.93;8.65;;;;;;;11.11;89.30;93378.31;5053123;28;20424;-85
2021/09/14 05:31:54;;;;;;;12.57;9.52;;;;;;;11.15;89.75;93377.69;5053153;28;20056;-84
2021/09/14 05:34:21;;;;;;;15.27;9.35;;;;;;;11.19;90.12;93366.00;5052947;28;20045;-85
2021/09/14 05:36:50;;;;;;;18.33;9.73;;;;;;;11.41;87.99;93395.69;5053139;28;20147;-84
2021/09/14 05:39:16;;;;;;;15.48;10.32;;;;;;;11.41;88.37;93380.25;5052883;28;20080;-84
2021/09/14 05:41:43;;;;;;;13.75;9.30;;;;;;;11.51;87.15;93372.84;5052647;28;20060;-84
2021/09/14 05:44:10;;;;;;;14.27;8.93;;;;;;;11.39;86.58;93323.88;5052899;28;20053;-84
2021/09/14 05:46:38;;;;;;;13.95;9.63;;;;;;;11.96;88.72;93392.47;5052844;28;20049;-84
2021/09/14 05:49:04;;;;;;;20.25;11.23;;;;;;;12.00;84.98;93377.38;5052319;28;20552;-84
2021/09/14 05:51:31;;;;;;;17.80;10.57;;;;;;;12.26;86.83;93396.91;5052887;28;20522;-85
2021/09/14 05:54:01;;;;;;;17.10;11.32;;;;;;;11.90;86.53;93324.59;5052648;28;20132;-85
2021/09/14 05:56:31;;;;;;;18.42;11.98;;;;;;;12.36;85.42;93375.03;5052772;28;20045;-85
2021/09/14 05:58:58;;;;;;;21.17;13.48;;;;;;;12.76;84.70;93396.94;5052455;28;20056;-85
2021/09/14 06:01:25;;;;;;;32.75;17.95;;;;;;;12.95;81.89;93400.25;5052200;28;20506;-85
2021/09/14 06:03:52;;;;;;;41.22;16.17;;;;;;;13.01;80.69;93380.53;5052348;28;20049;-84
2021/09/14 06:06:19;;;;;;;27.10;16.48;;;;;;;13.36;81.45;93398.69;5052488;28;20056;-84
2021/09/14 06:08:46;;;;;;;33.58;17.33;;;;;;;13.35;79.69;93360.19;5052606;28;20055;-84
2021/09/14 06:11:14;;;;;;;26.30;15.27;;;;;;;13.85;78.08;93397.72;5052511;28;20083;-84
2021/09/14 06:13:42;;;;;;;38.33;19.00;;;;;;;14.12;77.97;93394.69;5052273;28;20048;-84
2021/09/14 06:16:09;;;;;;;31.48;15.88;;;;;;;14.40;75.58;93388.00;5067125;28;20098;-84
2021/09/14 06:18:36;;;;;;;32.25;17.65;;;;;;;14.70;74.50;93394.78;5070748;28;20053;-85
2021/09/14 06:21:03;;;;;;;18.77;10.93;;;;;;;14.94;71.27;93393.91;5072004;28;20056;-85
2021/09/14 06:23:30;;;;;;;19.02;10.32;;;;;;;15.28;69.29;93390.59;5071799;28;20541;-85
2021/09/14 06:25:57;;;;;;;24.48;12.18;;;;;;;15.52;68.37;93393.84;5071809;28;20063;-85
2021/09/14 06:28:25;;;;;;;20.08;10.82;;;;;;;15.68;67.03;93381.91;5072136;28;20051;-84
2021/09/14 06:30:52;;;;;;;23.77;10.85;;;;;;;16.02;66.26;93387.06;5072043;28;20059;-84
2021/09/14 06:33:19;;;;;;;20.98;11.98;;;;;;;16.16;66.44;93368.59;5071804;28;20110;-85
2021/09/14 06:35:46;;;;;;;19.20;10.38;;;;;;;16.60;62.90;93398.09;5071977;28;20382;-86
2021/09/14 06:38:12;;;;;;;18.23;9.38;;;;;;;16.36;62.35;93362.06;5071458;28;20055;-86
2021/09/14 06:40:39;;;;;;;16.65;9.93;;;;;;;16.75;62.82;93402.69;5071395;28;20386;-85
2021/09/14 06:43:06;;;;;;;18.52;10.85;;;;;;;16.84;62.77;93383.06;5071641;28;20123;-85
2021/09/14 06:45:34;;;;;;;23.17;11.90;;;;;;;17.03;61.18;93357.59;5071746;28;20056;-86
2021/09/14 06:48:01;;;;;;;17.42;9.93;;;;;;;17.49;59.22;93405.72;5071410;28;20048;-86
2021/09/14 06:50:28;;;;;;;38.67;15.70;;;;;;;17.53;59.41;93391.22;5071640;28;20045;-87
2021/09/14 06:52:55;;;;;;;55.65;27.65;;;;;;;17.62;59.52;93387.16;5071602;28;20497;-86
2021/09/14 06:55:22;;;;;;;80.45;36.67;;;;;;;17.84;59.92;93409.63;5071441;28;20052;-86
2021/09/14 06:57:48;;;;;;;79.78;36.40;;;;;;;18.13;59.65;93398.91;5071360;28;20048;-86
2021/09/14 07:00:16;;;;;;;82.63;34.55;;;;;;;18.21;57.78;93387.25;5071276;28;20052;-86
2021/09/14 07:02:44;;;;;;;82.43;38.92;;;;;;;18.25;58.44;93372.72;5071643;28;20167;-85
2021/09/14 07:05:12;;;;;;;100.97;46.90;;;;;;;18.50;58.27;93383.47;5071316;28;20746;-86
2021/09/14 07:07:38;;;;;;;93.35;40.47;;;;;;;18.83;57.61;93407.50;5071236;28;20056;-86
2021/09/14 07:10:06;;;;;;;85.72;35.33;;;;;;;18.47;58.52;93347.59;5071081;28;20507;-87
2021/09/14 07:12:33;;;;;;;46.50;22.95;;;;;;;18.97;58.55;93397.41;5071296;28;20060;-87
2021/09/14 07:15:02;;;;;;;37.97;17.67;;;;;;;19.00;58.17;93396.91;5071252;28;20040;-88
2021/09/14 07:17:29;;;;;;;35.35;14.07;;;;;;;19.12;57.22;93377.69;5071001;28;20497;-87
2021/09/14 07:19:57;;;;;;;30.52;14.88;;;;;;;19.28;56.42;93342.00;5070865;28;20468;-88
2021/09/14 07:22:24;;;;;;;25.08;10.70;;;;;;;19.56;53.97;93353.72;5071202;28;20060;-86
2021/09/14 07:24:51;;;;;;;23.08;10.07;;;;;;;19.78;54.14;93399.56;5071137;28;20052;-87
2021/09/14 07:27:18;;;;;;;30.33;11.02;;;;;;;19.76;52.73;93386.78;5070930;28;20052;-87
2021/09/14 07:29:45;;;;;;;30.02;10.95;;;;;;;20.23;54.24;93399.00;5071041;28;20056;-86
2021/09/14 07:32:11;;;;;;;22.52;8.05;;;;;;;20.37;51.52;93362.69;5070566;28;20714;-87
2021/09/14 07:34:38;;;;;;;28.92;7.60;;;;;;;20.84;50.73;93384.13;5070662;28;20044;-86
2021/09/14 07:37:07;;;;;;;22.73;7.28;;;;;;;20.83;47.60;93378.13;5070884;28;20530;-87
2021/09/14 07:39:34;;;;;;;17.45;6.38;;;;;;;21.31;47.80;93405.56;5067087;28;20064;-88
2021/09/14 07:42:00;;;;;;;17.90;6.10;;;;;;;21.36;47.55;93389.84;5068499;28;20060;-87
2021/09/14 07:44:27;;;;;;;12.02;6.05;;;;;;;21.83;46.42;93405.19;5069345;28;20058;-88
2021/09/14 07:46:54;;;;;;;12.07;5.15;;;;;;;21.78;43.12;93345.09;5070276;28;20056;-88
2021/09/14 07:49:21;;;;;;;10.43;5.20;;;;;;;22.38;43.42;93396.28;5070537;28;20055;-88
2021/09/14 07:51:48;;;;;;;10.77;4.80;;;;;;;22.23;41.29;93350.13;5070559;28;20055;-88
2021/09/14 07:54:17;;;;;;;10.15;4.28;;;;;;;22.87;41.39;93398.06;5070348;28;20045;-91
2021/09/14 07:56:44;;;;;;;12.65;5.68;;;;;;;22.98;42.36;93377.75;5070097;28;20041;-88
2021/09/14 07:59:12;;;;;;;16.02;6.22;;;;;;;23.03;41.01;93354.91;5070547;28;20147;-87
2021/09/14 08:01:39;;;;;;;17.42;5.30;;;;;;;23.39;40.91;93385.06;5070358;28;20052;-87
2021/09/14 08:04:06;;;;;;;18.55;5.55;;;;;;;23.41;41.00;93361.19;5070584;28;20111;-87
2021/09/14 08:06:33;;;;;;;13.15;4.80;;;;;;;23.64;39.00;93393.56;5070228;28;20413;-87
2021/09/14 08:09:00;;;;;;;13.70;4.93;;;;;;;23.58;38.03;93355.41;5069725;28;20067;-88
2021/09/14 08:11:29;;;;;;;22.73;5.25;;;;;;;24.17;37.80;93396.94;5069884;28;20047;-84
2021/09/14 08:13:56;;;;;;;17.02;5.13;;;;;;;24.06;38.36;93335.94;5070152;28;20048;-84
2021/09/14 08:16:23;;;;;;;12.38;5.18;;;;;;;24.54;38.00;93373.38;5069912;28;20504;-83
2021/09/14 08:18:50;;;;;;;24.42;9.73;;;;;;;24.53;37.45;93338.47;5069850;28;20056;-85
2021/09/14 08:21:17;;;;;;;10.60;4.60;;;;;;;24.11;36.42;93375.22;5069787;28;20052;-85
2021/09/14 08:23:44;;;;;;;10.05;4.75;;;;;;;23.84;37.50;93326.88;5070174;28;20062;-85
2021/09/14 08:26:11;;;;;;;9.35;4.53;;;;;;;24.37;37.35;93374.75;5070115;28;20060;-88
2021/09/14 08:28:40;;;;;;;12.32;4.55;;;;;;;24.35;37.74;93352.50;5069893;28;20056;-85
2021/09/14 08:31:06;;;;;;;10.05;5.22;;;;;;;24.64;36.31;93380.28;5070026;28;20049;-86
2021/09/14 08:33:33;;;;;;;7.72;4.15;;;;;;;24.77;36.17;93360.31;5069964;28;20061;-87
2021/09/14 08:36:01;;;;;;;16.23;4.55;;;;;;;25.08;35.91;93370.97;5069729;28;20135;-88
2021/09/14 08:38:28;;;;;;;8.30;3.70;;;;;;;25.14;35.66;93365.59;5074442;28;20048;-86
2021/09/14 08:40:56;;;;;;;10.77;3.50;;;;;;;25.09;35.17;93353.34;5074044;28;20458;-87
2021/09/14 08:43:23;;;;;;;12.00;4.32;;;;;;;24.69;33.89;93336.31;5069585;28;20056;-86
2021/09/14 08:45:51;;;;;;;10.27;3.83;;;;;;;25.13;35.58;93361.41;5069483;28;20052;-87
2021/09/14 08:48:18;;;;;;;10.73;4.43;;;;;;;25.04;34.93;93312.19;5069411;28;20064;-84
2021/09/14 08:50:46;;;;;;;9.23;4.32;;;;;;;24.93;34.95;93335.31;5069490;28;20051;-86
2021/09/14 08:53:12;;;;;;;9.40;3.70;;;;;;;25.29;35.10;93341.59;5069230;28;20420;-85
2021/09/14 08:55:39;;;;;;;14.85;3.72;;;;;;;25.53;33.63;93353.66;5068974;28;20059;-86
2021/09/14 08:58:08;;;;;;;8.75;3.28;;;;;;;25.79;33.48;93347.78;5069125;28;20401;-86
2021/09/14 09:00:41;;;;;;;9.68;3.72;;;;;;;25.32;34.22;93293.66;5069270;28;20062;-85
2021/09/14 09:03:09;;;;;;;9.40;4.18;;;;;;;25.88;33.70;93321.50;5069659;28;20092;-85
2021/09/14 09:05:38;;;;;;;8.07;3.80;;;;;;;25.56;32.60;93276.81;5069631;28;20394;-86
2021/09/14 09:08:17;;;;;;;7.55;4.25;;;;;;;25.96;33.73;93346.31;5069961;28;20052;-86
2021/09/14 09:10:45;;;;;;;13.55;3.60;;;;;;;26.05;33.00;93312.91;5069397;28;20151;-86
2021/09/14 09:13:12;;;;;;;9.60;4.00;;;;;;;26.10;32.68;93336.44;5069010;28;20045;-86
2021/09/14 09:15:39;;;;;;;6.93;3.13;;;;;;;25.89;31.21;93280.97;5068839;28;20047;-86
2021/09/14 09:18:09;;;;;;;8.18;3.67;;;;;;;26.03;31.08;93286.13;5069308;28;20053;-87
2021/09/14 09:20:39;;;;;;;5.82;3.08;;;;;;;26.19;32.06;93248.84;5069034;28;20064;-86
2021/09/14 09:23:07;;;;;;;8.32;3.40;;;;;;;26.62;32.26;93290.25;5069444;28;20056;-86
2021/09/14 09:25:35;;;;;;;6.35;3.10;;;;;;;26.70;30.68;93316.94;5069404;28;20056;-87
2021/09/14 09:28:07;;;;;;;6.32;3.63;;;;;;;26.76;30.89;93323.59;5068974;28;20531;-87
2021/09/14 09:30:37;;;;;;;5.50;2.67;;;;;;;26.67;30.94;93321.72;5069114;28;20431;-86
2021/09/14 09:33:07;;;;;;;7.93;3.25;;;;;;;26.18;30.86;93319.13;5069154;28;20098;-88
2021/09/14 09:35:37;;;;;;;10.70;3.53;;;;;;;26.04;32.42;93298.19;5069163;28;20412;-86
2021/09/14 09:38:05;;;;;;;10.52;4.38;;;;;;;26.50;31.70;93290.09;5069170;28;20101;-88
2021/09/14 09:40:34;;;;;;;8.75;3.58;;;;;;;27.03;31.88;93311.25;5068832;28;20067;-86
2021/09/14 09:43:05;;;;;;;10.35;3.97;;;;;;;27.12;30.67;93284.88;5068373;28;20045;-85
2021/09/14 09:45:32;;;;;;;11.32;3.38;;;;;;;27.10;29.73;93268.56;5068809;28;20052;-88
2021/09/14 09:48:02;;;;;;;10.50;3.30;;;;;;;27.09;30.61;93244.09;5068775;28;20060;-87
2021/09/14 09:50:29;;;;;;;8.23;3.10;;;;;;;27.65;28.64;93290.03;5068890;28;20135;-86
2021/09/14 09:52:58;;;;;;;7.78;3.55;;;;;;;27.23;28.29;93214.13;5068851;28;20063;-86
2021/09/14 09:55:28;;;;;;;5.70;3.38;;;;;;;27.80;29.47;93265.00;5068751;28;20485;-85
2021/09/14 09:57:55;;;;;;;11.75;4.55;;;;;;;27.79;29.06;93258.97;5068825;28;20110;-86
2021/09/14 10:00:22;;;;;;;7.50;3.17;;;;;;;27.39;29.04;93203.84;5068915;28;20478;-86
2021/09/14 10:02:54;;;;;;;4.97;3.08;;;;;;;27.88;28.68;93307.22;5068614;28;20485;-86
2021/09/14 10:05:27;;;;;;;8.10;2.95;;;;;;;27.43;29.30;93226.63;5068301;28;20408;-86
2021/09/14 10:07:55;;;;;;;9.80;3.72;;;;;;;27.23;29.27;93270.28;5070326;28;20045;-86
2021/09/14 10:10:33;;;;;;;6.85;3.10;;;;;;;26.84;30.64;93238.50;5072398;28;20057;-85
2021/09/14 10:13:03;;;;;;;4.40;2.90;;;;;;;26.72;29.51;93304.22;5072197;28;20523;-85
2021/09/14 10:15:38;;;;;;;5.65;3.30;;;;;;;25.40;30.15;93276.38;5072511;28;20064;-86
2021/09/14 10:18:06;;;;;;;5.70;2.60;;;;;;;26.00;31.10;93295.41;5072626;28;20067;-89
2021/09/14 10:20:38;;;;;;;6.80;2.75;;;;;;;25.82;30.99;93297.19;5072283;28;20087;-88
2021/09/14 10:23:08;;;;;;;4.30;2.80;;;;;;;25.93;29.68;93267.97;5072359;28;20063;-88
2021/09/14 10:25:37;;;;;;;5.25;2.78;;;;;;;26.39;30.49;93287.00;5067956;28;20052;-86
2021/09/14 10:28:10;;;;;;;5.53;2.55;;;;;;;26.22;29.40;93238.47;5070533;28;20147;-88
2021/09/14 10:30:37;;;;;;;9.38;2.88;;;;;;;26.75;29.95;93293.09;5072052;28;20052;-86
2021/09/14 10:33:05;;;;;;;7.47;2.30;;;;;;;26.26;30.52;93275.50;5064486;28;20053;-86
2021/09/14 10:35:35;;;;;;;7.68;2.80;;;;;;;25.66;30.18;93230.25;5068811;28;20154;-87
2021/09/14 10:38:09;;;;;;;8.80;2.90;;;;;;;25.59;30.61;93220.97;5064150;28;20053;-87
2021/09/14 10:40:45;;;;;;;6.88;4.18;;;;;;;25.73;30.74;93217.47;5062590;28;20056;-87
2021/09/14 10:43:29;;;;;;;5.00;2.58;;;;;;;26.29;29.24;93290.72;5051840;28;20079;-86
2021/09/14 10:45:58;;;;;;;5.80;2.88;;;;;;;25.67;29.83;93223.91;5052052;28;20053;-87
2021/09/14 10:48:29;;;;;;;5.05;2.83;;;;;;;26.53;30.77;93279.72;5051864;28;20057;-86
2021/09/14 10:51:10;;;;;;;6.55;2.60;;;;;;;26.46;29.30;93276.00;5051490;28;20045;-89
2021/09/14 10:53:39;;;;;;;7.47;2.60;;;;;;;26.72;30.32;93277.88;5051470;28;20371;-88
2021/09/14 10:56:13;;;;;;;6.15;3.28;;;;;;;26.23;29.01;93278.72;5051655;28;20057;-88
2021/09/14 10:58:43;;;;;;;8.07;2.45;;;;;;;26.22;30.11;93245.56;5051072;28;20049;-88
2021/09/14 11:01:10;;;;;;;5.18;2.65;;;;;;;26.34;28.49;93172.03;5060752;28;20445;-86
2021/09/14 11:03:37;;;;;;;4.90;2.80;;;;;;;27.28;27.77;93243.75;5071200;28;20052;-87
2021/09/14 11:06:05;;;;;;;3.65;2.28;;;;;;;27.47;27.48;93211.72;5071312;28;20086;-88
2021/09/14 11:08:32;;;;;;;7.60;2.90;;;;;;;27.56;28.21;93214.31;5071580;28;20060;-87
2021/09/14 11:11:01;;;;;;;7.85;2.92;;;;;;;27.58;26.72;93229.84;5066231;28;20048;-88
2021/09/14 11:13:31;;;;;;;4.75;2.45;;;;;;;27.59;27.41;93271.75;5062130;28;20044;-86
2021/09/14 11:16:00;;;;;;;3.10;2.10;;;;;;;27.43;26.56;93265.41;5060647;28;20052;-87
2021/09/14 11:18:29;;;;;;;4.93;2.47;;;;;;;27.12;27.31;93267.19;5059919;28;20053;-88
2021/09/14 11:21:03;;;;;;;4.65;2.20;;;;;;;26.90;28.01;93224.06;5060306;28;20568;-85
2021/09/14 11:23:30;;;;;;;5.18;2.40;;;;;;;26.89;28.09;93200.69;5061774;28;20064;-86
2021/09/14 11:25:57;;;;;;;6.53;2.50;;;;;;;27.76;26.98;93262.22;5060374;28;20072;-87
2021/09/14 11:28:25;;;;;;;5.65;2.53;;;;;;;27.10;27.10;93264.09;5060105;28;20048;-85
2021/09/14 11:30:56;;;;;;;4.80;2.50;;;;;;;27.39;28.54;93267.91;5059661;28;20072;-87
2021/09/14 11:33:24;;;;;;;4.00;2.60;;;;;;;27.62;27.78;93265.06;5064482;28;20045;-86
2021/09/14 11:35:51;;;;;;;4.60;2.47;;;;;;;27.44;26.37;93191.25;5065803;28;20075;-86
2021/09/14 11:38:20;;;;;;;10.25;2.63;;;;;;;28.10;25.06;93242.00;5053676;28;20135;-86
2021/09/14 11:40:49;;;;;;;8.40;3.08;;;;;;;28.43;25.71;93237.97;5050932;28;20049;-85
2021/09/14 11:43:21;;;;;;;5.00;2.45;;;;;;;28.55;25.39;93239.88;5050449;28;20064;-88
2021/09/14 11:45:49;;;;;;;10.80;4.55;;;;;;;28.08;25.23;93230.22;5050259;28;20434;-87
2021/09/14 11:48:24;;;;;;;8.07;3.17;;;;;;;27.36;26.17;93173.59;5067309;28;20134;-90
2021/09/14 11:51:02;;;;;;;9.90;2.75;;;;;;;26.54;27.29;93236.50;5070008;28;20106;-86
2021/09/14 11:53:30;;;;;;;4.35;2.28;;;;;;;26.83;27.20;93249.38;5081302;28;20118;-87
2021/09/14 11:55:57;;;;;;;6.75;2.40;;;;;;;26.08;26.62;93185.94;5090797;28;20166;-86
2021/09/14 11:58:32;;;;;;;6.22;2.53;;;;;;;26.53;27.00;93250.75;5090846;28;20056;-87
2021/09/14 12:01:02;;;;;;;5.65;2.30;;;;;;;26.59;26.63;93254.00;5090405;28;20139;-86
2021/09/14 12:03:38;;;;;;;5.22;2.65;;;;;;;26.65;27.04;93217.75;5090317;28;20525;-85
2021/09/14 12:06:06;;;;;;;4.75;2.33;;;;;;;27.20;27.31;93247.16;5062551;28;20434;-86
2021/09/14 12:08:34;;;;;;;3.58;2.42;;;;;;;26.79;26.75;93247.34;5050445;28;20053;-87
2021/09/14 12:11:02;;;;;;;6.88;2.33;;;;;;;26.35;25.41;93244.72;5050193;28;20052;-87
2021/09/14 12:13:37;;;;;;;6.80;2.45;;;;;;;27.06;25.41;93242.84;5050308;28;20060;-87
2021/09/14 12:16:12;;;;;;;7.28;2.63;;;;;;;27.46;26.58;93231.25;5050200;28;20045;-87
2021/09/14 12:18:42;;;;;;;5.85;2.22;;;;;;;27.88;25.46;93241.22;5049702;28;20045;-87